sensor_id;sensor_type;location;lat;lon;timestamp;P1;durP1;ratioP1;P2;durP2;ratioP2
35677;SDS011;21791;42.828;74.582;2023-03-01T00:01:08;4.22;;;1.73;;
35677;SDS011;21791;42.828;74.582;2023-03-01T00:03:38;6.05;;;1.40;;
35677;SDS011;21791;42.828;74.582;2023-03-01T00:06:05;4.78;;;1.40;;
35677;SDS011;21791;42.828;74.582;2023-03-01T00:08:32;3.58;;;1.30;;
35677;SDS011;21791;42.828;74.582;2023-03-01T00:11:20;7.00;;;1.50;;
35677;SDS011;21791;42.828;74.582;2023-03-01T00:13:49;3.45;;;1.40;;
35677;SDS011;21791;42.828;74.582;2023-03-01T00:16:19;4.63;;;1.27;;
35677;SDS011;21791;42.828;74.582;2023-03-01T00:18:48;5.72;;;1.08;;
35677;SDS011;21791;42.828;74.582;2023-03-01T00:21:14;3.85;;;1.35;;
35677;SDS011;21791;42.828;74.582;2023-03-01T00:23:41;2.63;;;1.27;;
35677;SDS011;21791;42.828;74.582;2023-03-01T00:26:08;9.25;;;1.52;;
35677;SDS011;21791;42.828;74.582;2023-03-01T00:28:37;6.28;;;1.70;;
35677;SDS011;21791;42.828;74.582;2023-03-01T00:31:05;6.18;;;1.60;;
35677;SDS011;21791;42.828;74.582;2023-03-01T00:33:32;5.30;;;1.38;;
35677;SDS011;21791;42.828;74.582;2023-03-01T00:35:59;4.63;;;1.80;;
35677;SDS011;21791;42.828;74.582;2023-03-01T00:38:26;14.57;;;2.08;;
35677;SDS011;21791;42.828;74.582;2023-03-01T00:40:54;9.48;;;1.95;;
35677;SDS011;21791;42.828;74.582;2023-03-01T00:43:20;11.43;;;2.38;;
35677;SDS011;21791;42.828;74.582;2023-03-01T00:45:47;10.60;;;2.60;;
35677;SDS011;21791;42.828;74.582;2023-03-01T00:48:14;6.03;;;2.72;;
35677;SDS011;21791;42.828;74.582;2023-03-01T00:50:40;8.52;;;2.40;;
35677;SDS011;21791;42.828;74.582;2023-03-01T00:53:06;9.95;;;2.58;;
35677;SDS011;21791;42.828;74.582;2023-03-01T00:55:33;13.38;;;3.30;;
35677;SDS011;21791;42.828;74.582;2023-03-01T00:57:59;3.25;;;1.40;;
35677;SDS011;21791;42.828;74.582;2023-03-01T01:00:26;7.72;;;1.77;;
35677;SDS011;21791;42.828;74.582;2023-03-01T01:02:53;7.45;;;1.95;;
35677;SDS011;21791;42.828;74.582;2023-03-01T01:05:19;5.18;;;1.52;;
35677;SDS011;21791;42.828;74.582;2023-03-01T01:07:46;8.35;;;3.05;;
35677;SDS011;21791;42.828;74.582;2023-03-01T01:10:19;10.63;;;3.08;;
35677;SDS011;21791;42.828;74.582;2023-03-01T01:12:46;9.95;;;4.63;;
35677;SDS011;21791;42.828;74.582;2023-03-01T01:15:13;13.00;;;5.60;;
35677;SDS011;21791;42.828;74.582;2023-03-01T01:17:41;12.13;;;4.88;;
35677;SDS011;21791;42.828;74.582;2023-03-01T01:20:08;18.55;;;5.68;;
35677;SDS011;21791;42.828;74.582;2023-03-01T01:22:35;25.65;;;5.68;;
35677;SDS011;21791;42.828;74.582;2023-03-01T01:25:02;18.20;;;4.53;;
35677;SDS011;21791;42.828;74.582;2023-03-01T01:27:29;17.88;;;5.32;;
35677;SDS011;21791;42.828;74.582;2023-03-01T01:29:56;18.67;;;5.32;;
35677;SDS011;21791;42.828;74.582;2023-03-01T01:32:25;22.23;;;5.55;;
35677;SDS011;21791;42.828;74.582;2023-03-01T01:34:51;33.08;;;7.25;;
35677;SDS011;21791;42.828;74.582;2023-03-01T01:37:18;18.65;;;6.68;;
35677;SDS011;21791;42.828;74.582;2023-03-01T01:39:44;30.58;;;8.68;;
35677;SDS011;21791;42.828;74.582;2023-03-01T01:42:17;25.65;;;7.57;;
35677;SDS011;21791;42.828;74.582;2023-03-01T01:44:45;13.68;;;4.63;;
35677;SDS011;21791;42.828;74.582;2023-03-01T01:47:16;29.88;;;7.38;;
35677;SDS011;21791;42.828;74.582;2023-03-01T01:49:48;13.02;;;4.03;;
35677;SDS011;21791;42.828;74.582;2023-03-01T01:52:21;14.05;;;4.25;;
35677;SDS011;21791;42.828;74.582;2023-03-01T01:54:53;15.40;;;2.65;;
35677;SDS011;21791;42.828;74.582;2023-03-01T01:57:27;23.02;;;3.70;;
35677;SDS011;21791;42.828;74.582;2023-03-01T02:00:00;26.25;;;5.00;;
35677;SDS011;21791;42.828;74.582;2023-03-01T02:02:31;19.85;;;4.10;;
35677;SDS011;21791;42.828;74.582;2023-03-01T02:05:01;22.75;;;4.53;;
35677;SDS011;21791;42.828;74.582;2023-03-01T02:07:41;9.10;;;2.15;;
35677;SDS011;21791;42.828;74.582;2023-03-01T02:10:09;7.82;;;1.95;;
35677;SDS011;21791;42.828;74.582;2023-03-01T02:12:35;11.13;;;2.80;;
35677;SDS011;21791;42.828;74.582;2023-03-01T02:15:02;11.80;;;3.00;;
35677;SDS011;21791;42.828;74.582;2023-03-01T02:17:29;7.53;;;2.47;;
35677;SDS011;21791;42.828;74.582;2023-03-01T02:22:58;16.58;;;3.58;;
35677;SDS011;21791;42.828;74.582;2023-03-01T02:25:27;22.23;;;3.80;;
35677;SDS011;21791;42.828;74.582;2023-03-01T02:30:41;10.77;;;2.83;;
35677;SDS011;21791;42.828;74.582;2023-03-01T02:33:28;18.30;;;4.03;;
35677;SDS011;21791;42.828;74.582;2023-03-01T02:36:01;10.88;;;3.30;;
35677;SDS011;21791;42.828;74.582;2023-03-01T02:38:32;13.38;;;3.10;;
35677;SDS011;21791;42.828;74.582;2023-03-01T02:40:59;6.43;;;2.03;;
35677;SDS011;21791;42.828;74.582;2023-03-01T02:43:29;13.20;;;2.60;;
35677;SDS011;21791;42.828;74.582;2023-03-01T02:46:02;10.18;;;2.35;;
35677;SDS011;21791;42.828;74.582;2023-03-01T02:48:41;6.32;;;2.05;;
35677;SDS011;21791;42.828;74.582;2023-03-01T02:56:48;13.20;;;2.85;;
35677;SDS011;21791;42.828;74.582;2023-03-01T02:59:19;14.40;;;3.42;;
35677;SDS011;21791;42.828;74.582;2023-03-01T03:01:47;16.88;;;3.28;;
35677;SDS011;21791;42.828;74.582;2023-03-01T03:04:15;21.60;;;3.95;;
35677;SDS011;21791;42.828;74.582;2023-03-01T03:06:44;19.75;;;4.25;;
35677;SDS011;21791;42.828;74.582;2023-03-01T03:09:11;14.55;;;3.45;;
35677;SDS011;21791;42.828;74.582;2023-03-01T03:11:38;19.42;;;4.70;;
35677;SDS011;21791;42.828;74.582;2023-03-01T03:14:07;7.70;;;2.53;;
35677;SDS011;21791;42.828;74.582;2023-03-01T03:16:44;14.77;;;4.55;;
35677;SDS011;21791;42.828;74.582;2023-03-01T03:19:13;35.88;;;6.68;;
35677;SDS011;21791;42.828;74.582;2023-03-01T03:21:40;18.80;;;4.63;;
35677;SDS011;21791;42.828;74.582;2023-03-01T03:24:06;12.30;;;3.65;;
35677;SDS011;21791;42.828;74.582;2023-03-01T03:26:32;11.45;;;3.53;;
35677;SDS011;21791;42.828;74.582;2023-03-01T03:28:59;13.98;;;3.90;;
35677;SDS011;21791;42.828;74.582;2023-03-01T03:31:26;8.68;;;3.00;;
35677;SDS011;21791;42.828;74.582;2023-03-01T03:33:53;17.20;;;4.28;;
35677;SDS011;21791;42.828;74.582;2023-03-01T03:36:21;13.07;;;2.80;;
35677;SDS011;21791;42.828;74.582;2023-03-01T03:38:49;7.07;;;2.50;;
35677;SDS011;21791;42.828;74.582;2023-03-01T03:41:16;12.88;;;3.83;;
35677;SDS011;21791;42.828;74.582;2023-03-01T03:43:43;11.88;;;3.65;;
35677;SDS011;21791;42.828;74.582;2023-03-01T03:46:10;22.27;;;9.23;;
35677;SDS011;21791;42.828;74.582;2023-03-01T03:48:38;12.60;;;4.32;;
35677;SDS011;21791;42.828;74.582;2023-03-01T03:51:06;13.02;;;3.83;;
35677;SDS011;21791;42.828;74.582;2023-03-01T03:53:35;12.77;;;3.83;;
35677;SDS011;21791;42.828;74.582;2023-03-01T03:56:02;16.40;;;4.00;;
35677;SDS011;21791;42.828;74.582;2023-03-01T03:58:29;14.23;;;3.55;;
35677;SDS011;21791;42.828;74.582;2023-03-01T04:00:56;14.55;;;3.33;;
35677;SDS011;21791;42.828;74.582;2023-03-01T04:03:24;14.10;;;3.80;;
35677;SDS011;21791;42.828;74.582;2023-03-01T04:05:51;9.50;;;3.03;;
35677;SDS011;21791;42.828;74.582;2023-03-01T04:08:19;22.45;;;3.35;;
35677;SDS011;21791;42.828;74.582;2023-03-01T04:10:52;7.13;;;2.63;;
35677;SDS011;21791;42.828;74.582;2023-03-01T04:13:22;9.93;;;3.13;;
35677;SDS011;21791;42.828;74.582;2023-03-01T04:15:51;7.93;;;2.53;;
35677;SDS011;21791;42.828;74.582;2023-03-01T04:18:21;6.82;;;2.65;;
35677;SDS011;21791;42.828;74.582;2023-03-01T04:20:50;7.55;;;2.65;;
35677;SDS011;21791;42.828;74.582;2023-03-01T04:23:20;8.88;;;2.92;;
35677;SDS011;21791;42.828;74.582;2023-03-01T04:25:54;11.00;;;2.50;;
35677;SDS011;21791;42.828;74.582;2023-03-01T04:30:51;9.65;;;2.25;;
35677;SDS011;21791;42.828;74.582;2023-03-01T04:33:21;7.03;;;2.22;;
35677;SDS011;21791;42.828;74.582;2023-03-01T04:35:52;5.32;;;1.90;;
35677;SDS011;21791;42.828;74.582;2023-03-01T04:38:19;8.35;;;2.15;;
35677;SDS011;21791;42.828;74.582;2023-03-01T04:40:47;5.25;;;2.25;;
35677;SDS011;21791;42.828;74.582;2023-03-01T04:43:13;7.03;;;1.83;;
35677;SDS011;21791;42.828;74.582;2023-03-01T04:45:39;7.95;;;2.17;;
35677;SDS011;21791;42.828;74.582;2023-03-01T04:48:06;6.63;;;1.75;;
35677;SDS011;21791;42.828;74.582;2023-03-01T04:50:33;10.32;;;1.98;;
35677;SDS011;21791;42.828;74.582;2023-03-01T04:53:00;6.07;;;1.50;;
35677;SDS011;21791;42.828;74.582;2023-03-01T04:55:27;7.25;;;1.60;;
35677;SDS011;21791;42.828;74.582;2023-03-01T04:57:54;7.88;;;1.60;;
35677;SDS011;21791;42.828;74.582;2023-03-01T05:00:22;7.97;;;1.98;;
35677;SDS011;21791;42.828;74.582;2023-03-01T05:02:50;9.10;;;1.90;;
35677;SDS011;21791;42.828;74.582;2023-03-01T05:07:51;3.53;;;1.67;;
35677;SDS011;21791;42.828;74.582;2023-03-01T05:10:20;7.95;;;1.65;;
35677;SDS011;21791;42.828;74.582;2023-03-01T05:12:48;10.00;;;2.28;;
35677;SDS011;21791;42.828;74.582;2023-03-01T05:15:14;10.63;;;2.00;;
35677;SDS011;21791;42.828;74.582;2023-03-01T05:17:41;4.63;;;1.70;;
35677;SDS011;21791;42.828;74.582;2023-03-01T05:20:07;7.15;;;1.58;;
35677;SDS011;21791;42.828;74.582;2023-03-01T05:22:35;12.32;;;2.40;;
35677;SDS011;21791;42.828;74.582;2023-03-01T05:25:03;4.32;;;1.63;;
35677;SDS011;21791;42.828;74.582;2023-03-01T05:27:29;7.40;;;1.85;;
35677;SDS011;21791;42.828;74.582;2023-03-01T05:29:56;6.60;;;1.85;;
35677;SDS011;21791;42.828;74.582;2023-03-01T05:32:23;12.80;;;2.42;;
35677;SDS011;21791;42.828;74.582;2023-03-01T05:34:49;7.85;;;1.83;;
35677;SDS011;21791;42.828;74.582;2023-03-01T05:37:17;7.18;;;2.42;;
35677;SDS011;21791;42.828;74.582;2023-03-01T05:39:44;6.00;;;1.52;;
35677;SDS011;21791;42.828;74.582;2023-03-01T05:42:11;9.20;;;1.90;;
35677;SDS011;21791;42.828;74.582;2023-03-01T05:44:37;9.07;;;1.70;;
35677;SDS011;21791;42.828;74.582;2023-03-01T05:47:04;8.80;;;2.10;;
35677;SDS011;21791;42.828;74.582;2023-03-01T05:49:31;10.27;;;2.40;;
35677;SDS011;21791;42.828;74.582;2023-03-01T05:51:57;4.00;;;1.65;;
35677;SDS011;21791;42.828;74.582;2023-03-01T05:54:27;8.50;;;2.50;;
35677;SDS011;21791;42.828;74.582;2023-03-01T05:56:54;12.55;;;2.67;;
35677;SDS011;21791;42.828;74.582;2023-03-01T05:59:21;13.02;;;3.33;;
35677;SDS011;21791;42.828;74.582;2023-03-01T06:01:48;7.50;;;2.70;;
35677;SDS011;21791;42.828;74.582;2023-03-01T06:04:15;13.30;;;3.30;;
35677;SDS011;21791;42.828;74.582;2023-03-01T06:06:41;7.45;;;2.20;;
35677;SDS011;21791;42.828;74.582;2023-03-01T06:09:08;5.90;;;1.90;;
35677;SDS011;21791;42.828;74.582;2023-03-01T06:11:35;8.88;;;2.70;;
35677;SDS011;21791;42.828;74.582;2023-03-01T06:14:02;10.43;;;2.50;;
35677;SDS011;21791;42.828;74.582;2023-03-01T06:16:32;7.85;;;2.53;;
35677;SDS011;21791;42.828;74.582;2023-03-01T06:18:58;10.45;;;3.00;;
35677;SDS011;21791;42.828;74.582;2023-03-01T06:21:25;6.63;;;2.42;;
35677;SDS011;21791;42.828;74.582;2023-03-01T06:23:51;7.78;;;2.65;;
35677;SDS011;21791;42.828;74.582;2023-03-01T06:26:18;10.77;;;2.80;;
35677;SDS011;21791;42.828;74.582;2023-03-01T06:28:44;8.18;;;2.58;;
35677;SDS011;21791;42.828;74.582;2023-03-01T06:31:11;7.63;;;2.60;;
35677;SDS011;21791;42.828;74.582;2023-03-01T06:33:37;5.55;;;2.58;;
35677;SDS011;21791;42.828;74.582;2023-03-01T06:36:04;5.93;;;2.30;;
35677;SDS011;21791;42.828;74.582;2023-03-01T06:38:31;7.38;;;2.15;;
35677;SDS011;21791;42.828;74.582;2023-03-01T06:40:57;6.78;;;2.17;;
35677;SDS011;21791;42.828;74.582;2023-03-01T06:43:24;8.98;;;2.38;;
35677;SDS011;21791;42.828;74.582;2023-03-01T06:45:51;4.53;;;1.85;;
35677;SDS011;21791;42.828;74.582;2023-03-01T06:48:18;11.52;;;3.97;;
35677;SDS011;21791;42.828;74.582;2023-03-01T06:50:45;17.30;;;8.48;;
35677;SDS011;21791;42.828;74.582;2023-03-01T06:53:11;19.75;;;8.80;;
35677;SDS011;21791;42.828;74.582;2023-03-01T06:55:37;18.85;;;8.65;;
35677;SDS011;21791;42.828;74.582;2023-03-01T06:58:04;16.88;;;7.88;;
35677;SDS011;21791;42.828;74.582;2023-03-01T07:00:31;15.38;;;6.65;;
35677;SDS011;21791;42.828;74.582;2023-03-01T07:02:58;19.73;;;6.70;;
35677;SDS011;21791;42.828;74.582;2023-03-01T07:05:27;13.75;;;7.43;;
35677;SDS011;21791;42.828;74.582;2023-03-01T07:07:55;19.45;;;6.63;;
35677;SDS011;21791;42.828;74.582;2023-03-01T07:10:24;9.70;;;6.13;;
35677;SDS011;21791;42.828;74.582;2023-03-01T07:12:53;19.10;;;7.05;;
35677;SDS011;21791;42.828;74.582;2023-03-01T07:15:21;16.95;;;6.18;;
35677;SDS011;21791;42.828;74.582;2023-03-01T07:17:47;13.43;;;6.32;;
35677;SDS011;21791;42.828;74.582;2023-03-01T07:20:19;16.45;;;6.65;;
35677;SDS011;21791;42.828;74.582;2023-03-01T07:22:50;15.25;;;6.63;;
35677;SDS011;21791;42.828;74.582;2023-03-01T07:25:20;15.55;;;6.88;;
35677;SDS011;21791;42.828;74.582;2023-03-01T07:27:50;17.35;;;6.72;;
35677;SDS011;21791;42.828;74.582;2023-03-01T07:30:20;15.95;;;6.35;;
35677;SDS011;21791;42.828;74.582;2023-03-01T07:32:47;15.30;;;6.47;;
35677;SDS011;21791;42.828;74.582;2023-03-01T07:35:14;15.57;;;6.10;;
35677;SDS011;21791;42.828;74.582;2023-03-01T07:37:40;14.38;;;5.80;;
35677;SDS011;21791;42.828;74.582;2023-03-01T07:40:07;18.88;;;6.78;;
35677;SDS011;21791;42.828;74.582;2023-03-01T07:42:35;15.82;;;5.80;;
35677;SDS011;21791;42.828;74.582;2023-03-01T07:45:02;13.52;;;6.65;;
35677;SDS011;21791;42.828;74.582;2023-03-01T07:47:29;16.70;;;6.57;;
35677;SDS011;21791;42.828;74.582;2023-03-01T07:49:56;18.08;;;7.88;;
35677;SDS011;21791;42.828;74.582;2023-03-01T07:52:22;17.77;;;9.63;;
35677;SDS011;21791;42.828;74.582;2023-03-01T07:54:49;17.70;;;10.35;;
35677;SDS011;21791;42.828;74.582;2023-03-01T07:57:15;21.63;;;11.50;;
35677;SDS011;21791;42.828;74.582;2023-03-01T07:59:42;22.17;;;12.00;;
35677;SDS011;21791;42.828;74.582;2023-03-01T08:02:08;25.10;;;12.10;;
35677;SDS011;21791;42.828;74.582;2023-03-01T08:04:36;29.40;;;12.50;;
35677;SDS011;21791;42.828;74.582;2023-03-01T08:07:04;28.98;;;13.95;;
35677;SDS011;21791;42.828;74.582;2023-03-01T08:09:34;23.05;;;13.52;;
35677;SDS011;21791;42.828;74.582;2023-03-01T08:12:03;23.67;;;12.32;;
35677;SDS011;21791;42.828;74.582;2023-03-01T08:14:31;31.10;;;12.05;;
35677;SDS011;21791;42.828;74.582;2023-03-01T08:16:58;23.20;;;11.80;;
35677;SDS011;21791;42.828;74.582;2023-03-01T08:19:25;21.58;;;12.43;;
35677;SDS011;21791;42.828;74.582;2023-03-01T08:21:53;24.92;;;12.85;;
35677;SDS011;21791;42.828;74.582;2023-03-01T08:24:20;19.55;;;11.00;;
35677;SDS011;21791;42.828;74.582;2023-03-01T08:26:46;23.70;;;11.95;;
35677;SDS011;21791;42.828;74.582;2023-03-01T08:29:13;21.88;;;12.55;;
35677;SDS011;21791;42.828;74.582;2023-03-01T08:31:39;22.25;;;12.07;;
35677;SDS011;21791;42.828;74.582;2023-03-01T08:34:10;22.13;;;10.40;;
35677;SDS011;21791;42.828;74.582;2023-03-01T08:36:39;18.38;;;10.02;;
35677;SDS011;21791;42.828;74.582;2023-03-01T08:39:07;18.15;;;9.52;;
35677;SDS011;21791;42.828;74.582;2023-03-01T08:41:35;18.13;;;8.52;;
35677;SDS011;21791;42.828;74.582;2023-03-01T08:44:02;13.75;;;8.10;;
35677;SDS011;21791;42.828;74.582;2023-03-01T08:46:30;16.08;;;6.75;;
35677;SDS011;21791;42.828;74.582;2023-03-01T08:48:59;14.65;;;7.95;;
35677;SDS011;21791;42.828;74.582;2023-03-01T08:51:26;11.05;;;6.70;;
35677;SDS011;21791;42.828;74.582;2023-03-01T08:53:53;17.38;;;7.25;;
35677;SDS011;21791;42.828;74.582;2023-03-01T08:56:20;14.57;;;7.32;;
35677;SDS011;21791;42.828;74.582;2023-03-01T08:58:47;15.90;;;6.97;;
35677;SDS011;21791;42.828;74.582;2023-03-01T09:01:16;11.30;;;5.47;;
35677;SDS011;21791;42.828;74.582;2023-03-01T09:03:43;20.27;;;5.93;;
35677;SDS011;21791;42.828;74.582;2023-03-01T09:06:10;15.02;;;6.03;;
35677;SDS011;21791;42.828;74.582;2023-03-01T09:08:38;18.70;;;6.82;;
35677;SDS011;21791;42.828;74.582;2023-03-01T09:11:08;10.82;;;6.28;;
35677;SDS011;21791;42.828;74.582;2023-03-01T09:13:36;13.02;;;5.90;;
35677;SDS011;21791;42.828;74.582;2023-03-01T09:16:04;12.75;;;5.18;;
35677;SDS011;21791;42.828;74.582;2023-03-01T09:18:33;16.13;;;6.55;;
35677;SDS011;21791;42.828;74.582;2023-03-01T09:21:04;16.75;;;7.00;;
35677;SDS011;21791;42.828;74.582;2023-03-01T09:23:36;13.82;;;6.43;;
35677;SDS011;21791;42.828;74.582;2023-03-01T09:26:06;15.80;;;6.25;;
35677;SDS011;21791;42.828;74.582;2023-03-01T09:28:36;11.35;;;6.13;;
35677;SDS011;21791;42.828;74.582;2023-03-01T09:31:04;17.35;;;6.57;;
35677;SDS011;21791;42.828;74.582;2023-03-01T09:33:31;14.10;;;7.00;;
35677;SDS011;21791;42.828;74.582;2023-03-01T09:36:02;16.98;;;6.78;;
35677;SDS011;21791;42.828;74.582;2023-03-01T09:38:30;18.25;;;6.80;;
35677;SDS011;21791;42.828;74.582;2023-03-01T09:40:57;13.50;;;6.13;;
35677;SDS011;21791;42.828;74.582;2023-03-01T09:46:12;12.70;;;6.03;;
35677;SDS011;21791;42.828;74.582;2023-03-01T09:48:42;12.30;;;6.03;;
35677;SDS011;21791;42.828;74.582;2023-03-01T09:51:21;17.25;;;7.00;;
35677;SDS011;21791;42.828;74.582;2023-03-01T09:53:56;14.52;;;6.45;;
35677;SDS011;21791;42.828;74.582;2023-03-01T09:56:32;13.00;;;5.80;;
35677;SDS011;21791;42.828;74.582;2023-03-01T10:05:37;16.77;;;5.40;;
35677;SDS011;21791;42.828;74.582;2023-03-01T10:08:36;18.65;;;5.43;;
35677;SDS011;21791;42.828;74.582;2023-03-01T10:19:03;9.90;;;5.85;;
35677;SDS011;21791;42.828;74.582;2023-03-01T10:21:32;13.63;;;5.97;;
35677;SDS011;21791;42.828;74.582;2023-03-01T10:24:10;11.00;;;5.40;;
35677;SDS011;21791;42.828;74.582;2023-03-01T10:26:44;12.48;;;5.45;;
35677;SDS011;21791;42.828;74.582;2023-03-01T10:29:31;16.20;;;5.55;;
35677;SDS011;21791;42.828;74.582;2023-03-01T10:32:06;14.00;;;6.20;;
35677;SDS011;21791;42.828;74.582;2023-03-01T10:34:33;10.82;;;6.32;;
35677;SDS011;21791;42.828;74.582;2023-03-01T10:37:11;19.77;;;7.25;;
35677;SDS011;21791;42.828;74.582;2023-03-01T10:40:27;12.43;;;5.93;;
35677;SDS011;21791;42.828;74.582;2023-03-01T10:45:22;14.90;;;7.00;;
35677;SDS011;21791;42.828;74.582;2023-03-01T10:48:04;12.02;;;6.07;;
35677;SDS011;21791;42.828;74.582;2023-03-01T10:50:45;10.63;;;5.95;;
35677;SDS011;21791;42.828;74.582;2023-03-01T10:53:36;18.67;;;6.63;;
35677;SDS011;21791;42.828;74.582;2023-03-01T10:56:07;17.88;;;6.88;;
35677;SDS011;21791;42.828;74.582;2023-03-01T10:58:36;14.68;;;6.20;;
35677;SDS011;21791;42.828;74.582;2023-03-01T11:03:42;19.73;;;7.40;;
35677;SDS011;21791;42.828;74.582;2023-03-01T11:08:40;16.10;;;6.45;;
35677;SDS011;21791;42.828;74.582;2023-03-01T11:13:49;13.02;;;5.60;;
35677;SDS011;21791;42.828;74.582;2023-03-01T11:16:26;17.13;;;6.90;;
35677;SDS011;21791;42.828;74.582;2023-03-01T11:21:39;14.93;;;6.15;;
35677;SDS011;21791;42.828;74.582;2023-03-01T11:24:11;17.88;;;6.47;;
35677;SDS011;21791;42.828;74.582;2023-03-01T11:26:41;15.27;;;6.25;;
35677;SDS011;21791;42.828;74.582;2023-03-01T11:29:13;14.30;;;6.38;;
35677;SDS011;21791;42.828;74.582;2023-03-01T11:32:06;13.55;;;5.57;;
35677;SDS011;21791;42.828;74.582;2023-03-01T11:37:09;13.50;;;5.90;;
35677;SDS011;21791;42.828;74.582;2023-03-01T11:39:54;15.90;;;5.82;;
35677;SDS011;21791;42.828;74.582;2023-03-01T11:45:19;16.17;;;5.85;;
35677;SDS011;21791;42.828;74.582;2023-03-01T11:48:52;15.43;;;5.78;;
35677;SDS011;21791;42.828;74.582;2023-03-01T11:51:02;15.63;;;5.80;;
35677;SDS011;21791;42.828;74.582;2023-03-01T11:56:28;14.80;;;5.32;;
35677;SDS011;21791;42.828;74.582;2023-03-01T12:01:59;14.65;;;5.10;;
35677;SDS011;21791;42.828;74.582;2023-03-01T12:10:28;11.07;;;4.63;;
35677;SDS011;21791;42.828;74.582;2023-03-01T12:24:10;19.83;;;7.10;;
35677;SDS011;21791;42.828;74.582;2023-03-01T12:26:44;24.42;;;7.88;;
35677;SDS011;21791;42.828;74.582;2023-03-01T12:29:41;23.75;;;7.50;;
35677;SDS011;21791;42.828;74.582;2023-03-01T12:41:01;18.90;;;8.00;;
35677;SDS011;21791;42.828;74.582;2023-03-01T12:52:08;27.95;;;10.60;;
35677;SDS011;21791;42.828;74.582;2023-03-01T12:54:58;22.70;;;9.23;;
35677;SDS011;21791;42.828;74.582;2023-03-01T12:57:34;30.35;;;10.50;;
35677;SDS011;21791;42.828;74.582;2023-03-01T13:00:10;40.13;;;11.32;;
35677;SDS011;21791;42.828;74.582;2023-03-01T13:11:41;30.63;;;14.77;;
35677;SDS011;21791;42.828;74.582;2023-03-01T13:16:48;44.00;;;17.02;;
35677;SDS011;21791;42.828;74.582;2023-03-01T13:19:17;35.40;;;15.98;;
35677;SDS011;21791;42.828;74.582;2023-03-01T13:21:46;43.58;;;19.02;;
35677;SDS011;21791;42.828;74.582;2023-03-01T13:32:18;49.58;;;27.65;;
35677;SDS011;21791;42.828;74.582;2023-03-01T13:35:00;57.47;;;31.30;;
35677;SDS011;21791;42.828;74.582;2023-03-01T13:37:33;59.15;;;33.17;;
35677;SDS011;21791;42.828;74.582;2023-03-01T13:40:03;62.03;;;32.35;;
35677;SDS011;21791;42.828;74.582;2023-03-01T13:42:51;56.83;;;33.00;;
35677;SDS011;21791;42.828;74.582;2023-03-01T13:45:32;61.38;;;34.45;;
35677;SDS011;21791;42.828;74.582;2023-03-01T13:48:21;58.13;;;33.75;;
35677;SDS011;21791;42.828;74.582;2023-03-01T13:50:50;63.50;;;35.40;;
35677;SDS011;21791;42.828;74.582;2023-03-01T13:53:24;61.08;;;34.92;;
35677;SDS011;21791;42.828;74.582;2023-03-01T13:56:01;80.43;;;41.25;;
35677;SDS011;21791;42.828;74.582;2023-03-01T13:58:46;73.50;;;41.30;;
35677;SDS011;21791;42.828;74.582;2023-03-01T14:01:36;70.03;;;39.97;;
35677;SDS011;21791;42.828;74.582;2023-03-01T14:04:14;76.57;;;43.08;;
35677;SDS011;21791;42.828;74.582;2023-03-01T14:06:48;71.50;;;42.13;;
35677;SDS011;21791;42.828;74.582;2023-03-01T14:09:25;58.38;;;32.22;;
35677;SDS011;21791;42.828;74.582;2023-03-01T14:19:58;35.15;;;19.92;;
35677;SDS011;21791;42.828;74.582;2023-03-01T14:22:35;37.63;;;19.33;;
35677;SDS011;21791;42.828;74.582;2023-03-01T14:25:06;41.60;;;25.17;;
35677;SDS011;21791;42.828;74.582;2023-03-01T14:30:37;38.63;;;24.50;;
35677;SDS011;21791;42.828;74.582;2023-03-01T14:33:18;36.95;;;21.77;;
35677;SDS011;21791;42.828;74.582;2023-03-01T14:38:31;35.53;;;22.35;;
35677;SDS011;21791;42.828;74.582;2023-03-01T14:41:04;35.72;;;22.35;;
35677;SDS011;21791;42.828;74.582;2023-03-01T14:43:36;42.05;;;22.45;;
35677;SDS011;21791;42.828;74.582;2023-03-01T14:46:16;41.30;;;23.70;;
35677;SDS011;21791;42.828;74.582;2023-03-01T14:48:50;39.15;;;21.67;;
35677;SDS011;21791;42.828;74.582;2023-03-01T14:51:20;35.65;;;19.30;;
35677;SDS011;21791;42.828;74.582;2023-03-01T14:53:46;30.63;;;16.73;;
35677;SDS011;21791;42.828;74.582;2023-03-01T14:56:14;29.40;;;17.15;;
35677;SDS011;21791;42.828;74.582;2023-03-01T14:58:44;32.95;;;18.60;;
35677;SDS011;21791;42.828;74.582;2023-03-01T15:01:13;33.03;;;17.67;;
35677;SDS011;21791;42.828;74.582;2023-03-01T15:03:43;33.60;;;18.10;;
35677;SDS011;21791;42.828;74.582;2023-03-01T15:06:14;28.88;;;16.95;;
35677;SDS011;21791;42.828;74.582;2023-03-01T15:08:47;27.65;;;16.15;;
35677;SDS011;21791;42.828;74.582;2023-03-01T15:11:17;28.02;;;15.02;;
35677;SDS011;21791;42.828;74.582;2023-03-01T15:13:50;30.90;;;15.00;;
35677;SDS011;21791;42.828;74.582;2023-03-01T15:16:19;34.08;;;14.77;;
35677;SDS011;21791;42.828;74.582;2023-03-01T15:19:00;25.48;;;13.85;;
35677;SDS011;21791;42.828;74.582;2023-03-01T15:21:30;28.65;;;16.25;;
35677;SDS011;21791;42.828;74.582;2023-03-01T15:26:54;32.40;;;18.25;;
35677;SDS011;21791;42.828;74.582;2023-03-01T15:29:24;31.27;;;17.98;;
35677;SDS011;21791;42.828;74.582;2023-03-01T15:31:58;33.47;;;18.60;;
35677;SDS011;21791;42.828;74.582;2023-03-01T15:36:55;28.13;;;15.38;;
35677;SDS011;21791;42.828;74.582;2023-03-01T15:39:31;22.77;;;14.70;;
35677;SDS011;21791;42.828;74.582;2023-03-01T15:42:04;32.85;;;19.95;;
35677;SDS011;21791;42.828;74.582;2023-03-01T15:44:38;37.70;;;21.00;;
35677;SDS011;21791;42.828;74.582;2023-03-01T15:47:29;33.15;;;19.15;;
35677;SDS011;21791;42.828;74.582;2023-03-01T15:49:57;36.00;;;20.00;;
35677;SDS011;21791;42.828;74.582;2023-03-01T15:52:29;31.20;;;16.67;;
35677;SDS011;21791;42.828;74.582;2023-03-01T15:55:24;29.92;;;15.85;;
35677;SDS011;21791;42.828;74.582;2023-03-01T15:58:02;25.90;;;14.60;;
35677;SDS011;21791;42.828;74.582;2023-03-01T16:00:41;29.13;;;14.70;;
35677;SDS011;21791;42.828;74.582;2023-03-01T16:03:12;25.02;;;14.50;;
35677;SDS011;21791;42.828;74.582;2023-03-01T16:05:38;28.20;;;15.38;;
35677;SDS011;21791;42.828;74.582;2023-03-01T16:08:05;27.08;;;14.75;;
35677;SDS011;21791;42.828;74.582;2023-03-01T16:10:33;22.48;;;12.10;;
35677;SDS011;21791;42.828;74.582;2023-03-01T16:13:00;22.05;;;12.77;;
35677;SDS011;21791;42.828;74.582;2023-03-01T16:15:30;22.55;;;12.85;;
35677;SDS011;21791;42.828;74.582;2023-03-01T16:17:59;24.35;;;12.60;;
35677;SDS011;21791;42.828;74.582;2023-03-01T16:20:27;24.95;;;12.43;;
35677;SDS011;21791;42.828;74.582;2023-03-01T16:22:55;22.05;;;11.85;;
35677;SDS011;21791;42.828;74.582;2023-03-01T16:25:25;21.33;;;11.05;;
35677;SDS011;21791;42.828;74.582;2023-03-01T16:27:52;23.35;;;11.70;;
35677;SDS011;21791;42.828;74.582;2023-03-01T16:30:20;19.30;;;10.60;;
35677;SDS011;21791;42.828;74.582;2023-03-01T16:32:48;18.83;;;9.60;;
35677;SDS011;21791;42.828;74.582;2023-03-01T16:35:16;16.30;;;9.48;;
35677;SDS011;21791;42.828;74.582;2023-03-01T16:37:45;20.88;;;11.75;;
35677;SDS011;21791;42.828;74.582;2023-03-01T16:40:16;19.83;;;11.40;;
35677;SDS011;21791;42.828;74.582;2023-03-01T16:42:49;22.95;;;12.00;;
35677;SDS011;21791;42.828;74.582;2023-03-01T16:45:16;17.15;;;10.77;;
35677;SDS011;21791;42.828;74.582;2023-03-01T16:47:44;26.08;;;11.75;;
35677;SDS011;21791;42.828;74.582;2023-03-01T16:50:11;19.98;;;10.43;;